ヤクーツク の空港の天気 - METARとTAF

ヤクーツク空港 ( UEEE / YKS ) - ロシア ヤクーツク
飛行場実況気象(Metar)
観測時間06/18 04:30 YAKT (06/17 19:30 UTC)
風向・風速北北西 3m/s
視程10km以上
天気現象
なし
気温16℃
湿度55%
気圧1007hPa
METARUEEE 171930Z 33003MPS CAVOK 16/07 Q1007 R23L/09//60 NOSIG RMK QFE746
過去の天気等 Google飛行場航空写真 Wunderground天気予報

過去48時間のMETAR

飛行場予報(TAF)
発表時間: 6/18 02:00 YAKT (6/17 17:00 UTC)
予報対象時間: 18日3時 YAKT ~ 19日9時 YAKT
風向・風速北西 3m/s 瞬間風速 8m/s
視程10km以上
全天の4割程度の積乱雲 雲底高度 1220m
TAF UEEE 171700Z 1718/1824 32003G08MPS 9999 SCT040CB TX30/1806Z TN13/1718Z